sensor_id;sensor_type;location;lat;lon;timestamp;P1;durP1;ratioP1;P2;durP2;ratioP2
36663;SDS011;53333;51.976;20.144;2023-08-31T00:02:19;6.13;;;5.47;;
36663;SDS011;53333;51.976;20.144;2023-08-31T00:04:52;8.50;;;5.30;;
36663;SDS011;53333;51.976;20.144;2023-08-31T00:07:25;5.95;;;5.28;;
36663;SDS011;53333;51.976;20.144;2023-08-31T00:10:00;10.02;;;5.63;;
36663;SDS011;53333;51.976;20.144;2023-08-31T00:12:38;9.45;;;5.57;;
36663;SDS011;53333;51.976;20.144;2023-08-31T00:15:11;7.65;;;5.07;;
36663;SDS011;53333;51.976;20.144;2023-08-31T00:17:44;7.95;;;5.00;;
36663;SDS011;53333;51.976;20.144;2023-08-31T00:20:18;6.07;;;4.90;;
36663;SDS011;53333;51.976;20.144;2023-08-31T00:22:50;6.25;;;4.50;;
36663;SDS011;53333;51.976;20.144;2023-08-31T00:25:25;6.47;;;5.10;;
36663;SDS011;53333;51.976;20.144;2023-08-31T00:27:59;6.38;;;4.75;;
36663;SDS011;53333;51.976;20.144;2023-08-31T00:30:36;6.28;;;4.70;;
36663;SDS011;53333;51.976;20.144;2023-08-31T00:35:43;7.57;;;4.77;;
36663;SDS011;53333;51.976;20.144;2023-08-31T00:38:17;5.20;;;4.30;;
36663;SDS011;53333;51.976;20.144;2023-08-31T00:40:52;6.32;;;4.50;;
36663;SDS011;53333;51.976;20.144;2023-08-31T00:43:25;7.40;;;4.68;;
36663;SDS011;53333;51.976;20.144;2023-08-31T00:45:59;6.22;;;4.20;;
36663;SDS011;53333;51.976;20.144;2023-08-31T00:48:33;5.53;;;4.22;;
36663;SDS011;53333;51.976;20.144;2023-08-31T00:51:06;5.75;;;4.25;;
36663;SDS011;53333;51.976;20.144;2023-08-31T00:53:41;4.53;;;4.10;;
36663;SDS011;53333;51.976;20.144;2023-08-31T00:56:16;4.95;;;4.45;;
36663;SDS011;53333;51.976;20.144;2023-08-31T00:58:51;5.15;;;4.30;;
36663;SDS011;53333;51.976;20.144;2023-08-31T01:01:27;4.95;;;4.25;;
36663;SDS011;53333;51.976;20.144;2023-08-31T01:04:11;5.18;;;4.00;;
36663;SDS011;53333;51.976;20.144;2023-08-31T01:06:53;4.78;;;4.03;;
36663;SDS011;53333;51.976;20.144;2023-08-31T01:09:34;6.78;;;4.20;;
36663;SDS011;53333;51.976;20.144;2023-08-31T01:12:15;4.35;;;3.70;;
36663;SDS011;53333;51.976;20.144;2023-08-31T01:15:02;4.50;;;4.10;;
36663;SDS011;53333;51.976;20.144;2023-08-31T01:17:39;5.85;;;3.97;;
36663;SDS011;53333;51.976;20.144;2023-08-31T01:20:19;6.38;;;4.70;;
36663;SDS011;53333;51.976;20.144;2023-08-31T01:23:10;5.30;;;4.20;;
36663;SDS011;53333;51.976;20.144;2023-08-31T01:25:50;6.60;;;4.10;;
36663;SDS011;53333;51.976;20.144;2023-08-31T01:28:26;4.40;;;4.00;;
36663;SDS011;53333;51.976;20.144;2023-08-31T01:31:03;4.18;;;3.75;;
36663;SDS011;53333;51.976;20.144;2023-08-31T01:36:14;4.75;;;4.25;;
36663;SDS011;53333;51.976;20.144;2023-08-31T01:38:55;6.10;;;3.80;;
36663;SDS011;53333;51.976;20.144;2023-08-31T01:41:36;4.55;;;3.85;;
36663;SDS011;53333;51.976;20.144;2023-08-31T01:44:13;5.30;;;4.22;;
36663;SDS011;53333;51.976;20.144;2023-08-31T01:46:51;4.15;;;3.50;;
36663;SDS011;53333;51.976;20.144;2023-08-31T01:49:27;4.97;;;3.58;;
36663;SDS011;53333;51.976;20.144;2023-08-31T01:52:01;6.38;;;3.75;;
36663;SDS011;53333;51.976;20.144;2023-08-31T01:54:34;5.45;;;4.50;;
36663;SDS011;53333;51.976;20.144;2023-08-31T01:57:10;5.07;;;3.58;;
36663;SDS011;53333;51.976;20.144;2023-08-31T02:00:03;5.68;;;4.07;;
36663;SDS011;53333;51.976;20.144;2023-08-31T02:02:44;6.40;;;3.88;;
36663;SDS011;53333;51.976;20.144;2023-08-31T02:05:17;5.90;;;3.63;;
36663;SDS011;53333;51.976;20.144;2023-08-31T02:07:50;6.43;;;3.63;;
36663;SDS011;53333;51.976;20.144;2023-08-31T02:10:23;6.65;;;3.55;;
36663;SDS011;53333;51.976;20.144;2023-08-31T02:12:59;5.10;;;3.33;;
36663;SDS011;53333;51.976;20.144;2023-08-31T02:15:32;6.10;;;3.60;;
36663;SDS011;53333;51.976;20.144;2023-08-31T02:18:05;5.57;;;3.90;;
36663;SDS011;53333;51.976;20.144;2023-08-31T02:20:39;4.78;;;4.10;;
36663;SDS011;53333;51.976;20.144;2023-08-31T02:23:12;5.50;;;4.53;;
36663;SDS011;53333;51.976;20.144;2023-08-31T02:25:45;6.13;;;4.63;;
36663;SDS011;53333;51.976;20.144;2023-08-31T02:30:57;8.20;;;5.65;;
36663;SDS011;53333;51.976;20.144;2023-08-31T02:33:34;7.72;;;5.45;;
36663;SDS011;53333;51.976;20.144;2023-08-31T02:36:07;10.32;;;5.95;;
36663;SDS011;53333;51.976;20.144;2023-08-31T02:38:40;6.53;;;5.68;;
36663;SDS011;53333;51.976;20.144;2023-08-31T02:41:13;9.45;;;6.55;;
36663;SDS011;53333;51.976;20.144;2023-08-31T02:43:49;13.30;;;7.35;;
36663;SDS011;53333;51.976;20.144;2023-08-31T02:46:23;9.68;;;7.28;;
36663;SDS011;53333;51.976;20.144;2023-08-31T02:48:56;12.25;;;6.80;;
36663;SDS011;53333;51.976;20.144;2023-08-31T02:51:29;10.77;;;8.63;;
36663;SDS011;53333;51.976;20.144;2023-08-31T02:54:01;9.77;;;7.95;;
36663;SDS011;53333;51.976;20.144;2023-08-31T02:59:09;12.80;;;8.55;;
36663;SDS011;53333;51.976;20.144;2023-08-31T03:01:43;12.38;;;8.90;;
36663;SDS011;53333;51.976;20.144;2023-08-31T03:04:18;15.32;;;9.60;;
36663;SDS011;53333;51.976;20.144;2023-08-31T03:06:51;16.95;;;9.88;;
36663;SDS011;53333;51.976;20.144;2023-08-31T03:09:23;14.55;;;10.55;;
36663;SDS011;53333;51.976;20.144;2023-08-31T03:11:56;18.13;;;9.95;;
36663;SDS011;53333;51.976;20.144;2023-08-31T03:14:31;13.35;;;10.43;;
36663;SDS011;53333;51.976;20.144;2023-08-31T03:17:04;17.08;;;11.10;;
36663;SDS011;53333;51.976;20.144;2023-08-31T03:19:37;15.05;;;11.45;;
36663;SDS011;53333;51.976;20.144;2023-08-31T03:22:09;16.45;;;12.10;;
36663;SDS011;53333;51.976;20.144;2023-08-31T03:24:43;15.75;;;11.80;;
36663;SDS011;53333;51.976;20.144;2023-08-31T03:27:15;14.05;;;10.80;;
36663;SDS011;53333;51.976;20.144;2023-08-31T03:29:50;17.77;;;11.45;;
36663;SDS011;53333;51.976;20.144;2023-08-31T03:32:23;13.80;;;11.00;;
36663;SDS011;53333;51.976;20.144;2023-08-31T03:34:56;14.57;;;10.73;;
36663;SDS011;53333;51.976;20.144;2023-08-31T03:37:29;15.20;;;10.10;;
36663;SDS011;53333;51.976;20.144;2023-08-31T03:40:02;15.60;;;9.95;;
36663;SDS011;53333;51.976;20.144;2023-08-31T03:42:38;13.57;;;9.98;;
36663;SDS011;53333;51.976;20.144;2023-08-31T03:45:12;12.00;;;9.90;;
36663;SDS011;53333;51.976;20.144;2023-08-31T03:47:45;14.73;;;10.02;;
36663;SDS011;53333;51.976;20.144;2023-08-31T03:50:19;14.45;;;10.10;;
36663;SDS011;53333;51.976;20.144;2023-08-31T03:52:51;12.80;;;9.82;;
36663;SDS011;53333;51.976;20.144;2023-08-31T03:55:24;12.32;;;9.68;;
36663;SDS011;53333;51.976;20.144;2023-08-31T03:57:57;14.75;;;9.63;;
36663;SDS011;53333;51.976;20.144;2023-08-31T04:00:32;15.90;;;10.25;;
36663;SDS011;53333;51.976;20.144;2023-08-31T04:03:05;11.65;;;9.23;;
36663;SDS011;53333;51.976;20.144;2023-08-31T04:05:38;18.40;;;10.48;;
36663;SDS011;53333;51.976;20.144;2023-08-31T04:08:11;11.90;;;9.23;;
36663;SDS011;53333;51.976;20.144;2023-08-31T04:13:18;14.07;;;9.67;;
36663;SDS011;53333;51.976;20.144;2023-08-31T04:15:52;13.48;;;10.43;;
36663;SDS011;53333;51.976;20.144;2023-08-31T04:18:26;14.80;;;9.98;;
36663;SDS011;53333;51.976;20.144;2023-08-31T04:20:59;13.80;;;10.20;;
36663;SDS011;53333;51.976;20.144;2023-08-31T04:23:34;14.43;;;10.52;;
36663;SDS011;53333;51.976;20.144;2023-08-31T04:26:10;11.13;;;9.05;;
36663;SDS011;53333;51.976;20.144;2023-08-31T04:28:44;15.77;;;10.15;;
36663;SDS011;53333;51.976;20.144;2023-08-31T04:31:18;14.13;;;9.57;;
36663;SDS011;53333;51.976;20.144;2023-08-31T04:33:51;10.52;;;8.65;;
36663;SDS011;53333;51.976;20.144;2023-08-31T04:36:25;11.85;;;9.88;;
36663;SDS011;53333;51.976;20.144;2023-08-31T04:38:58;13.13;;;9.52;;
36663;SDS011;53333;51.976;20.144;2023-08-31T04:41:31;12.18;;;9.50;;
36663;SDS011;53333;51.976;20.144;2023-08-31T04:44:04;16.70;;;9.38;;
36663;SDS011;53333;51.976;20.144;2023-08-31T04:46:39;17.63;;;10.82;;
36663;SDS011;53333;51.976;20.144;2023-08-31T04:49:12;15.57;;;10.82;;
36663;SDS011;53333;51.976;20.144;2023-08-31T04:51:46;18.23;;;12.20;;
36663;SDS011;53333;51.976;20.144;2023-08-31T04:54:18;20.02;;;11.40;;
36663;SDS011;53333;51.976;20.144;2023-08-31T04:56:51;19.33;;;10.38;;
36663;SDS011;53333;51.976;20.144;2023-08-31T04:59:24;14.05;;;10.07;;
36663;SDS011;53333;51.976;20.144;2023-08-31T05:01:58;16.95;;;10.50;;
36663;SDS011;53333;51.976;20.144;2023-08-31T05:04:31;14.90;;;10.43;;
36663;SDS011;53333;51.976;20.144;2023-08-31T05:07:04;15.05;;;10.93;;
36663;SDS011;53333;51.976;20.144;2023-08-31T05:09:37;16.98;;;11.50;;
36663;SDS011;53333;51.976;20.144;2023-08-31T05:12:10;22.67;;;14.30;;
36663;SDS011;53333;51.976;20.144;2023-08-31T05:14:43;43.72;;;27.95;;
36663;SDS011;53333;51.976;20.144;2023-08-31T05:17:17;16.58;;;11.10;;
36663;SDS011;53333;51.976;20.144;2023-08-31T05:19:50;13.75;;;9.68;;
36663;SDS011;53333;51.976;20.144;2023-08-31T05:22:23;10.10;;;8.60;;
36663;SDS011;53333;51.976;20.144;2023-08-31T05:24:56;32.33;;;22.67;;
36663;SDS011;53333;51.976;20.144;2023-08-31T05:27:29;12.40;;;8.50;;
36663;SDS011;53333;51.976;20.144;2023-08-31T05:30:02;10.55;;;8.30;;
36663;SDS011;53333;51.976;20.144;2023-08-31T05:32:37;9.63;;;7.55;;
36663;SDS011;53333;51.976;20.144;2023-08-31T05:35:10;9.43;;;7.63;;
36663;SDS011;53333;51.976;20.144;2023-08-31T05:37:43;11.00;;;7.53;;
36663;SDS011;53333;51.976;20.144;2023-08-31T05:40:16;13.30;;;8.20;;
36663;SDS011;53333;51.976;20.144;2023-08-31T05:42:49;11.98;;;7.63;;
36663;SDS011;53333;51.976;20.144;2023-08-31T05:45:22;10.95;;;7.80;;
36663;SDS011;53333;51.976;20.144;2023-08-31T05:47:57;12.57;;;6.85;;
36663;SDS011;53333;51.976;20.144;2023-08-31T05:50:30;8.02;;;6.32;;
36663;SDS011;53333;51.976;20.144;2023-08-31T05:53:03;9.77;;;5.88;;
36663;SDS011;53333;51.976;20.144;2023-08-31T05:55:36;8.52;;;6.63;;
36663;SDS011;53333;51.976;20.144;2023-08-31T05:58:09;11.68;;;6.65;;
36663;SDS011;53333;51.976;20.144;2023-08-31T06:00:42;7.57;;;5.72;;
36663;SDS011;53333;51.976;20.144;2023-08-31T06:03:17;6.65;;;5.50;;
36663;SDS011;53333;51.976;20.144;2023-08-31T06:05:50;6.82;;;5.50;;
36663;SDS011;53333;51.976;20.144;2023-08-31T06:08:23;7.25;;;5.13;;
36663;SDS011;53333;51.976;20.144;2023-08-31T06:10:56;8.77;;;5.22;;
36663;SDS011;53333;51.976;20.144;2023-08-31T06:13:30;6.68;;;5.53;;
36663;SDS011;53333;51.976;20.144;2023-08-31T06:16:03;6.47;;;5.32;;
36663;SDS011;53333;51.976;20.144;2023-08-31T06:18:37;8.52;;;6.32;;
36663;SDS011;53333;51.976;20.144;2023-08-31T06:21:10;7.65;;;5.90;;
36663;SDS011;53333;51.976;20.144;2023-08-31T06:23:43;7.60;;;6.00;;
36663;SDS011;53333;51.976;20.144;2023-08-31T06:26:16;26.40;;;15.75;;
36663;SDS011;53333;51.976;20.144;2023-08-31T06:28:49;7.88;;;5.20;;
36663;SDS011;53333;51.976;20.144;2023-08-31T06:31:22;7.28;;;5.18;;
36663;SDS011;53333;51.976;20.144;2023-08-31T06:33:56;8.77;;;5.57;;
36663;SDS011;53333;51.976;20.144;2023-08-31T06:36:29;5.88;;;5.22;;
36663;SDS011;53333;51.976;20.144;2023-08-31T06:39:02;10.55;;;5.50;;
36663;SDS011;53333;51.976;20.144;2023-08-31T06:41:36;8.90;;;5.25;;
36663;SDS011;53333;51.976;20.144;2023-08-31T06:44:09;8.50;;;4.53;;
36663;SDS011;53333;51.976;20.144;2023-08-31T06:46:42;8.38;;;4.93;;
36663;SDS011;53333;51.976;20.144;2023-08-31T06:49:16;7.10;;;5.70;;
36663;SDS011;53333;51.976;20.144;2023-08-31T06:51:49;8.15;;;4.40;;
36663;SDS011;53333;51.976;20.144;2023-08-31T06:54:22;5.88;;;5.28;;
36663;SDS011;53333;51.976;20.144;2023-08-31T06:56:57;8.05;;;5.22;;
36663;SDS011;53333;51.976;20.144;2023-08-31T06:59:30;8.32;;;5.90;;
36663;SDS011;53333;51.976;20.144;2023-08-31T07:02:03;7.05;;;4.90;;
36663;SDS011;53333;51.976;20.144;2023-08-31T07:04:37;9.10;;;5.13;;
36663;SDS011;53333;51.976;20.144;2023-08-31T07:07:11;6.60;;;4.70;;
36663;SDS011;53333;51.976;20.144;2023-08-31T07:09:45;8.95;;;4.85;;
36663;SDS011;53333;51.976;20.144;2023-08-31T07:12:19;6.28;;;4.75;;
36663;SDS011;53333;51.976;20.144;2023-08-31T07:14:52;4.90;;;4.15;;
36663;SDS011;53333;51.976;20.144;2023-08-31T07:17:28;6.13;;;4.40;;
36663;SDS011;53333;51.976;20.144;2023-08-31T07:20:03;6.18;;;4.68;;
36663;SDS011;53333;51.976;20.144;2023-08-31T07:22:38;8.70;;;5.97;;
36663;SDS011;53333;51.976;20.144;2023-08-31T07:25:12;7.68;;;4.55;;
36663;SDS011;53333;51.976;20.144;2023-08-31T07:27:45;9.45;;;4.80;;
36663;SDS011;53333;51.976;20.144;2023-08-31T07:30:20;6.05;;;4.80;;
36663;SDS011;53333;51.976;20.144;2023-08-31T07:32:53;5.55;;;4.50;;
36663;SDS011;53333;51.976;20.144;2023-08-31T07:35:28;4.95;;;3.80;;
36663;SDS011;53333;51.976;20.144;2023-08-31T07:38:01;5.13;;;4.10;;
36663;SDS011;53333;51.976;20.144;2023-08-31T07:40:36;6.05;;;4.47;;
36663;SDS011;53333;51.976;20.144;2023-08-31T07:45:43;3.92;;;3.42;;
36663;SDS011;53333;51.976;20.144;2023-08-31T07:48:16;7.63;;;4.35;;
36663;SDS011;53333;51.976;20.144;2023-08-31T07:50:50;4.85;;;3.72;;
36663;SDS011;53333;51.976;20.144;2023-08-31T07:53:23;5.97;;;3.33;;
36663;SDS011;53333;51.976;20.144;2023-08-31T07:55:58;4.25;;;3.78;;
36663;SDS011;53333;51.976;20.144;2023-08-31T07:58:31;7.15;;;4.80;;
36663;SDS011;53333;51.976;20.144;2023-08-31T08:01:04;5.28;;;4.00;;
36663;SDS011;53333;51.976;20.144;2023-08-31T08:06:13;5.65;;;3.80;;
36663;SDS011;53333;51.976;20.144;2023-08-31T08:08:46;5.80;;;3.70;;
36663;SDS011;53333;51.976;20.144;2023-08-31T08:11:19;3.92;;;3.33;;
36663;SDS011;53333;51.976;20.144;2023-08-31T08:13:52;7.18;;;3.20;;
36663;SDS011;53333;51.976;20.144;2023-08-31T08:16:25;4.88;;;3.25;;
36663;SDS011;53333;51.976;20.144;2023-08-31T08:21:32;3.42;;;3.13;;
36663;SDS011;53333;51.976;20.144;2023-08-31T08:24:05;2.85;;;2.58;;
36663;SDS011;53333;51.976;20.144;2023-08-31T08:26:39;6.30;;;2.35;;
36663;SDS011;53333;51.976;20.144;2023-08-31T08:31:44;3.13;;;2.60;;
36663;SDS011;53333;51.976;20.144;2023-08-31T08:34:17;3.28;;;2.28;;
36663;SDS011;53333;51.976;20.144;2023-08-31T08:36:57;4.57;;;2.22;;
36663;SDS011;53333;51.976;20.144;2023-08-31T08:39:30;2.65;;;2.08;;
36663;SDS011;53333;51.976;20.144;2023-08-31T08:42:04;6.93;;;2.65;;
36663;SDS011;53333;51.976;20.144;2023-08-31T08:44:38;2.55;;;2.17;;
36663;SDS011;53333;51.976;20.144;2023-08-31T08:47:11;3.28;;;2.28;;
36663;SDS011;53333;51.976;20.144;2023-08-31T08:49:44;2.90;;;2.05;;
36663;SDS011;53333;51.976;20.144;2023-08-31T08:52:20;37.75;;;24.08;;
36663;SDS011;53333;51.976;20.144;2023-08-31T08:54:54;4.32;;;2.30;;
36663;SDS011;53333;51.976;20.144;2023-08-31T08:57:30;5.90;;;2.28;;
36663;SDS011;53333;51.976;20.144;2023-08-31T09:00:03;4.43;;;2.10;;
36663;SDS011;53333;51.976;20.144;2023-08-31T09:02:37;4.15;;;2.53;;
36663;SDS011;53333;51.976;20.144;2023-08-31T09:10:37;6.22;;;2.08;;
36663;SDS011;53333;51.976;20.144;2023-08-31T09:13:11;3.55;;;2.33;;
36663;SDS011;53333;51.976;20.144;2023-08-31T09:15:47;3.30;;;2.38;;
36663;SDS011;53333;51.976;20.144;2023-08-31T09:18:23;3.60;;;2.45;;
36663;SDS011;53333;51.976;20.144;2023-08-31T09:20:57;3.38;;;2.38;;
36663;SDS011;53333;51.976;20.144;2023-08-31T09:23:32;3.70;;;2.30;;
36663;SDS011;53333;51.976;20.144;2023-08-31T09:26:05;3.35;;;2.63;;
36663;SDS011;53333;51.976;20.144;2023-08-31T09:28:40;4.18;;;2.28;;
36663;SDS011;53333;51.976;20.144;2023-08-31T09:31:13;3.47;;;2.42;;
36663;SDS011;53333;51.976;20.144;2023-08-31T09:33:50;5.25;;;2.60;;
36663;SDS011;53333;51.976;20.144;2023-08-31T09:36:23;7.25;;;2.55;;
36663;SDS011;53333;51.976;20.144;2023-08-31T09:38:58;4.20;;;2.80;;
36663;SDS011;53333;51.976;20.144;2023-08-31T09:41:31;3.88;;;2.83;;
36663;SDS011;53333;51.976;20.144;2023-08-31T09:44:14;5.22;;;3.85;;
36663;SDS011;53333;51.976;20.144;2023-08-31T09:46:48;3.60;;;2.60;;
36663;SDS011;53333;51.976;20.144;2023-08-31T09:51:54;4.25;;;2.58;;
36663;SDS011;53333;51.976;20.144;2023-08-31T09:54:28;3.50;;;2.75;;
36663;SDS011;53333;51.976;20.144;2023-08-31T09:57:02;6.53;;;3.25;;
36663;SDS011;53333;51.976;20.144;2023-08-31T09:59:36;4.57;;;3.17;;
36663;SDS011;53333;51.976;20.144;2023-08-31T10:02:11;5.88;;;3.58;;
36663;SDS011;53333;51.976;20.144;2023-08-31T10:04:47;4.53;;;4.13;;
36663;SDS011;53333;51.976;20.144;2023-08-31T10:07:24;3.83;;;3.10;;
36663;SDS011;53333;51.976;20.144;2023-08-31T10:10:01;5.43;;;3.70;;
36663;SDS011;53333;51.976;20.144;2023-08-31T10:12:35;5.22;;;3.30;;
36663;SDS011;53333;51.976;20.144;2023-08-31T10:15:08;5.50;;;3.40;;
36663;SDS011;53333;51.976;20.144;2023-08-31T10:17:42;7.15;;;3.30;;
36663;SDS011;53333;51.976;20.144;2023-08-31T10:20:16;3.33;;;2.97;;
36663;SDS011;53333;51.976;20.144;2023-08-31T10:22:50;4.50;;;3.08;;
36663;SDS011;53333;51.976;20.144;2023-08-31T10:25:24;4.28;;;2.38;;
36663;SDS011;53333;51.976;20.144;2023-08-31T10:27:58;4.30;;;2.67;;
36663;SDS011;53333;51.976;20.144;2023-08-31T10:30:31;3.30;;;2.88;;
36663;SDS011;53333;51.976;20.144;2023-08-31T10:33:19;4.55;;;2.70;;
36663;SDS011;53333;51.976;20.144;2023-08-31T10:35:55;3.17;;;2.40;;
36663;SDS011;53333;51.976;20.144;2023-08-31T10:38:29;8.35;;;2.70;;
36663;SDS011;53333;51.976;20.144;2023-08-31T10:41:17;3.83;;;2.97;;
36663;SDS011;53333;51.976;20.144;2023-08-31T10:43:52;4.88;;;2.58;;
36663;SDS011;53333;51.976;20.144;2023-08-31T10:46:30;4.28;;;2.80;;
36663;SDS011;53333;51.976;20.144;2023-08-31T10:49:12;3.30;;;2.50;;
36663;SDS011;53333;51.976;20.144;2023-08-31T10:51:47;4.03;;;2.65;;
36663;SDS011;53333;51.976;20.144;2023-08-31T10:54:22;3.90;;;2.33;;
36663;SDS011;53333;51.976;20.144;2023-08-31T10:57:04;2.90;;;2.70;;
36663;SDS011;53333;51.976;20.144;2023-08-31T10:59:42;3.20;;;2.50;;
36663;SDS011;53333;51.976;20.144;2023-08-31T11:02:29;6.72;;;2.63;;
36663;SDS011;53333;51.976;20.144;2023-08-31T11:05:07;6.07;;;3.13;;
36663;SDS011;53333;51.976;20.144;2023-08-31T11:07:45;3.20;;;2.55;;
36663;SDS011;53333;51.976;20.144;2023-08-31T11:10:20;3.15;;;2.78;;
36663;SDS011;53333;51.976;20.144;2023-08-31T11:12:56;3.05;;;2.75;;
36663;SDS011;53333;51.976;20.144;2023-08-31T11:15:29;3.63;;;3.00;;
36663;SDS011;53333;51.976;20.144;2023-08-31T11:18:03;4.45;;;2.92;;
36663;SDS011;53333;51.976;20.144;2023-08-31T11:20:37;4.28;;;2.67;;
36663;SDS011;53333;51.976;20.144;2023-08-31T11:25:43;6.85;;;2.92;;
36663;SDS011;53333;51.976;20.144;2023-08-31T11:28:18;5.68;;;2.50;;
36663;SDS011;53333;51.976;20.144;2023-08-31T11:30:51;3.83;;;2.40;;
36663;SDS011;53333;51.976;20.144;2023-08-31T11:36:03;2.70;;;2.50;;
36663;SDS011;53333;51.976;20.144;2023-08-31T11:38:38;3.63;;;2.75;;
36663;SDS011;53333;51.976;20.144;2023-08-31T11:41:11;2.92;;;2.30;;
36663;SDS011;53333;51.976;20.144;2023-08-31T11:43:46;5.65;;;2.40;;
36663;SDS011;53333;51.976;20.144;2023-08-31T11:46:19;7.18;;;5.70;;
36663;SDS011;53333;51.976;20.144;2023-08-31T11:48:53;5.28;;;2.78;;
36663;SDS011;53333;51.976;20.144;2023-08-31T11:51:26;2.92;;;2.38;;
36663;SDS011;53333;51.976;20.144;2023-08-31T11:54:01;2.88;;;1.80;;
36663;SDS011;53333;51.976;20.144;2023-08-31T11:56:41;3.80;;;2.00;;
36663;SDS011;53333;51.976;20.144;2023-08-31T11:59:17;2.40;;;2.17;;
36663;SDS011;53333;51.976;20.144;2023-08-31T12:01:51;4.38;;;2.20;;
36663;SDS011;53333;51.976;20.144;2023-08-31T12:04:24;3.45;;;2.10;;
36663;SDS011;53333;51.976;20.144;2023-08-31T12:07:00;2.55;;;2.35;;
36663;SDS011;53333;51.976;20.144;2023-08-31T12:09:36;2.85;;;2.53;;
36663;SDS011;53333;51.976;20.144;2023-08-31T12:12:09;3.53;;;3.22;;
36663;SDS011;53333;51.976;20.144;2023-08-31T12:14:44;2.50;;;2.30;;
36663;SDS011;53333;51.976;20.144;2023-08-31T12:17:18;2.85;;;2.17;;
36663;SDS011;53333;51.976;20.144;2023-08-31T12:19:51;3.33;;;2.25;;
36663;SDS011;53333;51.976;20.144;2023-08-31T12:22:24;2.65;;;2.20;;
36663;SDS011;53333;51.976;20.144;2023-08-31T12:24:57;3.38;;;2.00;;
36663;SDS011;53333;51.976;20.144;2023-08-31T12:27:30;4.15;;;2.50;;
36663;SDS011;53333;51.976;20.144;2023-08-31T12:32:38;11.15;;;2.75;;
36663;SDS011;53333;51.976;20.144;2023-08-31T12:35:11;4.93;;;2.75;;
36663;SDS011;53333;51.976;20.144;2023-08-31T12:37:45;9.23;;;2.70;;
36663;SDS011;53333;51.976;20.144;2023-08-31T12:40:18;9.98;;;3.42;;
36663;SDS011;53333;51.976;20.144;2023-08-31T12:45:25;9.18;;;3.85;;
36663;SDS011;53333;51.976;20.144;2023-08-31T12:47:58;8.70;;;3.30;;
36663;SDS011;53333;51.976;20.144;2023-08-31T12:50:31;9.50;;;3.55;;
36663;SDS011;53333;51.976;20.144;2023-08-31T12:53:04;4.80;;;3.20;;
36663;SDS011;53333;51.976;20.144;2023-08-31T12:55:37;5.70;;;3.50;;
36663;SDS011;53333;51.976;20.144;2023-08-31T12:58:10;6.65;;;3.13;;
36663;SDS011;53333;51.976;20.144;2023-08-31T13:00:45;9.52;;;4.45;;
36663;SDS011;53333;51.976;20.144;2023-08-31T13:03:20;10.73;;;4.60;;
36663;SDS011;53333;51.976;20.144;2023-08-31T13:05:53;9.02;;;3.75;;
36663;SDS011;53333;51.976;20.144;2023-08-31T13:08:26;6.55;;;3.22;;
36663;SDS011;53333;51.976;20.144;2023-08-31T13:11:00;6.78;;;4.60;;
36663;SDS011;53333;51.976;20.144;2023-08-31T13:13:35;5.88;;;3.38;;
36663;SDS011;53333;51.976;20.144;2023-08-31T13:16:09;7.45;;;4.18;;
36663;SDS011;53333;51.976;20.144;2023-08-31T13:18:42;6.93;;;3.80;;
36663;SDS011;53333;51.976;20.144;2023-08-31T13:21:15;7.03;;;4.68;;
36663;SDS011;53333;51.976;20.144;2023-08-31T13:23:48;5.82;;;4.13;;
36663;SDS011;53333;51.976;20.144;2023-08-31T13:26:21;6.03;;;4.15;;
36663;SDS011;53333;51.976;20.144;2023-08-31T13:28:54;6.22;;;4.97;;
36663;SDS011;53333;51.976;20.144;2023-08-31T13:31:28;8.25;;;5.95;;
36663;SDS011;53333;51.976;20.144;2023-08-31T13:34:01;7.00;;;5.60;;
36663;SDS011;53333;51.976;20.144;2023-08-31T13:39:07;8.02;;;6.03;;
36663;SDS011;53333;51.976;20.144;2023-08-31T13:41:41;7.93;;;6.68;;
36663;SDS011;53333;51.976;20.144;2023-08-31T13:44:14;8.93;;;7.10;;
36663;SDS011;53333;51.976;20.144;2023-08-31T13:46:48;7.82;;;7.03;;
36663;SDS011;53333;51.976;20.144;2023-08-31T13:49:21;9.95;;;7.50;;
36663;SDS011;53333;51.976;20.144;2023-08-31T13:51:54;10.90;;;7.45;;
36663;SDS011;53333;51.976;20.144;2023-08-31T13:54:27;8.95;;;8.00;;
36663;SDS011;53333;51.976;20.144;2023-08-31T13:57:00;9.10;;;8.13;;
36663;SDS011;53333;51.976;20.144;2023-08-31T13:59:34;9.68;;;8.10;;
36663;SDS011;53333;51.976;20.144;2023-08-31T14:02:08;8.55;;;7.75;;
36663;SDS011;53333;51.976;20.144;2023-08-31T14:04:41;12.90;;;8.60;;
36663;SDS011;53333;51.976;20.144;2023-08-31T14:07:14;12.20;;;8.15;;
36663;SDS011;53333;51.976;20.144;2023-08-31T14:12:21;9.07;;;7.82;;
36663;SDS011;53333;51.976;20.144;2023-08-31T14:14:56;8.98;;;8.10;;
36663;SDS011;53333;51.976;20.144;2023-08-31T14:17:31;10.60;;;8.02;;
36663;SDS011;53333;51.976;20.144;2023-08-31T14:20:05;8.10;;;7.30;;
36663;SDS011;53333;51.976;20.144;2023-08-31T14:22:41;7.93;;;7.22;;
36663;SDS011;53333;51.976;20.144;2023-08-31T14:25:18;10.57;;;7.30;;
36663;SDS011;53333;51.976;20.144;2023-08-31T14:30:24;11.83;;;6.03;;
36663;SDS011;53333;51.976;20.144;2023-08-31T14:32:59;6.50;;;5.90;;
36663;SDS011;53333;51.976;20.144;2023-08-31T14:35:35;8.38;;;7.57;;
36663;SDS011;53333;51.976;20.144;2023-08-31T14:38:10;7.03;;;6.30;;
36663;SDS011;53333;51.976;20.144;2023-08-31T14:40:44;5.63;;;4.88;;
36663;SDS011;53333;51.976;20.144;2023-08-31T14:43:17;5.05;;;4.55;;
36663;SDS011;53333;51.976;20.144;2023-08-31T14:45:50;16.25;;;14.65;;
36663;SDS011;53333;51.976;20.144;2023-08-31T14:50:58;8.45;;;5.22;;
36663;SDS011;53333;51.976;20.144;2023-08-31T14:53:32;5.68;;;4.10;;
36663;SDS011;53333;51.976;20.144;2023-08-31T14:56:05;8.82;;;5.75;;
36663;SDS011;53333;51.976;20.144;2023-08-31T14:58:39;4.57;;;4.18;;
36663;SDS011;53333;51.976;20.144;2023-08-31T15:01:13;4.18;;;3.80;;
36663;SDS011;53333;51.976;20.144;2023-08-31T15:06:20;5.35;;;3.85;;
36663;SDS011;53333;51.976;20.144;2023-08-31T15:11:27;4.40;;;4.00;;
36663;SDS011;53333;51.976;20.144;2023-08-31T15:16:35;6.45;;;4.30;;
36663;SDS011;53333;51.976;20.144;2023-08-31T15:19:11;4.53;;;3.78;;
36663;SDS011;53333;51.976;20.144;2023-08-31T15:21:44;4.53;;;3.63;;
36663;SDS011;53333;51.976;20.144;2023-08-31T15:26:50;5.20;;;2.60;;
36663;SDS011;53333;51.976;20.144;2023-08-31T15:29:24;3.97;;;2.92;;
36663;SDS011;53333;51.976;20.144;2023-08-31T15:31:59;3.25;;;2.85;;
36663;SDS011;53333;51.976;20.144;2023-08-31T15:34:34;3.15;;;2.85;;
36663;SDS011;53333;51.976;20.144;2023-08-31T15:37:07;3.40;;;2.75;;
36663;SDS011;53333;51.976;20.144;2023-08-31T15:39:40;3.67;;;2.42;;
36663;SDS011;53333;51.976;20.144;2023-08-31T15:42:14;3.35;;;3.00;;
36663;SDS011;53333;51.976;20.144;2023-08-31T15:44:47;4.78;;;3.05;;
36663;SDS011;53333;51.976;20.144;2023-08-31T15:47:20;5.90;;;3.25;;
36663;SDS011;53333;51.976;20.144;2023-08-31T15:52:28;2.83;;;2.53;;
36663;SDS011;53333;51.976;20.144;2023-08-31T15:55:03;2.70;;;2.50;;
36663;SDS011;53333;51.976;20.144;2023-08-31T15:57:37;4.10;;;2.40;;
36663;SDS011;53333;51.976;20.144;2023-08-31T16:00:10;3.72;;;2.53;;
36663;SDS011;53333;51.976;20.144;2023-08-31T16:02:44;5.18;;;3.50;;
36663;SDS011;53333;51.976;20.144;2023-08-31T16:07:52;3.13;;;2.53;;
36663;SDS011;53333;51.976;20.144;2023-08-31T16:10:26;3.33;;;2.75;;
36663;SDS011;53333;51.976;20.144;2023-08-31T16:12:59;3.58;;;2.53;;
36663;SDS011;53333;51.976;20.144;2023-08-31T16:15:32;3.95;;;3.10;;
36663;SDS011;53333;51.976;20.144;2023-08-31T16:18:05;6.07;;;4.50;;
36663;SDS011;53333;51.976;20.144;2023-08-31T16:23:13;5.60;;;2.90;;